createdAt,value
2018-07-05T00:01:32.815Z,25.70
2018-07-05T00:04:12.479Z,25.70
2018-07-05T00:06:52.071Z,25.70
2018-07-05T00:09:31.635Z,25.70
2018-07-05T00:12:11.146Z,25.60
2018-07-05T00:14:50.743Z,25.70
2018-07-05T00:17:30.340Z,25.60
2018-07-05T00:20:09.899Z,25.70
2018-07-05T00:22:49.428Z,25.70
2018-07-05T00:25:29.039Z,25.70
2018-07-05T00:28:08.695Z,25.70
2018-07-05T00:30:48.263Z,25.60
2018-07-05T00:33:27.775Z,25.60
2018-07-05T00:36:07.519Z,25.60
2018-07-05T00:38:46.955Z,25.60
2018-07-05T00:41:26.452Z,25.70
2018-07-05T00:44:06.067Z,25.60
2018-07-05T00:46:45.707Z,25.60
2018-07-05T00:49:25.440Z,25.60
2018-07-05T00:52:04.963Z,25.60
2018-07-05T00:54:44.548Z,25.60
2018-07-05T00:57:24.247Z,25.60
2018-07-05T01:00:03.999Z,25.60
2018-07-05T01:02:43.547Z,25.60
2018-07-05T01:05:23.167Z,25.60
2018-07-05T01:08:02.684Z,25.60
2018-07-05T01:10:42.355Z,25.60
2018-07-05T01:13:21.903Z,25.60
2018-07-05T01:16:01.347Z,25.60
2018-07-05T01:18:40.906Z,25.60
2018-07-05T01:21:20.731Z,25.60
2018-07-05T01:24:00.241Z,25.60
2018-07-05T01:26:39.911Z,25.60
2018-07-05T01:29:19.422Z,25.60
2018-07-05T01:31:58.922Z,25.60
2018-07-05T01:34:38.507Z,25.60
2018-07-05T01:37:18.139Z,25.60
2018-07-05T01:39:57.871Z,25.60
2018-07-05T01:42:37.291Z,25.60
2018-07-05T01:45:16.943Z,25.60
2018-07-05T01:47:56.407Z,25.60
2018-07-05T01:50:36.043Z,25.60
2018-07-05T01:53:15.590Z,25.60
2018-07-05T01:55:55.105Z,25.60
2018-07-05T01:58:34.790Z,25.60
2018-07-05T02:01:14.359Z,25.60
2018-07-05T02:03:53.855Z,25.60
2018-07-05T02:06:33.403Z,25.60
2018-07-05T02:09:13.144Z,25.60
2018-07-05T02:11:53.047Z,25.60
2018-07-05T02:14:32.632Z,25.60
2018-07-05T02:17:12.339Z,25.60
2018-07-05T02:19:51.938Z,25.50
2018-07-05T02:25:05.105Z,25.60
2018-07-05T02:27:44.674Z,25.50
2018-07-05T02:30:24.262Z,25.60
2018-07-05T02:33:03.826Z,25.60
2018-07-05T02:35:43.315Z,25.50
2018-07-05T02:38:23.688Z,25.60
2018-07-05T02:41:04.243Z,25.50
2018-07-05T02:43:43.758Z,25.50
2018-07-05T02:46:23.530Z,25.60
2018-07-05T02:49:03.146Z,25.50
2018-07-05T02:51:42.669Z,25.50
2018-07-05T02:54:22.205Z,25.50
2018-07-05T02:57:01.739Z,25.50
2018-07-05T02:59:41.276Z,25.50
2018-07-05T03:02:20.895Z,25.60
2018-07-05T03:05:00.475Z,25.50
2018-07-05T03:07:39.998Z,25.50
2018-07-05T03:10:19.555Z,25.50
2018-07-05T03:12:59.104Z,25.50
2018-07-05T03:15:38.656Z,25.50
2018-07-05T03:18:18.250Z,25.50
2018-07-05T03:20:58.041Z,25.50
2018-07-05T03:23:37.775Z,25.50
2018-07-05T03:26:17.286Z,25.50
2018-07-05T03:28:56.810Z,25.50
2018-07-05T03:31:36.486Z,25.50
2018-07-05T03:34:16.058Z,25.50
2018-07-05T03:36:55.599Z,25.50
2018-07-05T03:39:35.200Z,25.50
2018-07-05T03:42:14.863Z,25.50
2018-07-05T03:44:54.391Z,25.50
2018-07-05T03:47:34.062Z,25.50
2018-07-05T03:50:13.659Z,25.50
2018-07-05T03:52:53.422Z,25.50
2018-07-05T03:55:33.031Z,25.50
2018-07-05T03:58:12.929Z,25.50
2018-07-05T04:00:52.451Z,25.50
2018-07-05T04:03:31.983Z,25.50
2018-07-05T04:06:11.505Z,25.50
2018-07-05T04:08:51.167Z,25.50
2018-07-05T04:11:30.655Z,25.50
2018-07-05T04:14:10.143Z,25.50
2018-07-05T04:16:49.706Z,25.50
2018-07-05T04:19:29.324Z,25.50
2018-07-05T04:22:09.070Z,25.50
2018-07-05T04:24:48.584Z,25.50
2018-07-05T04:27:28.225Z,25.50
2018-07-05T04:30:07.846Z,25.50
2018-07-05T04:32:47.233Z,25.50
2018-07-05T04:35:26.968Z,25.50
2018-07-05T04:38:06.374Z,25.50
2018-07-05T04:40:45.978Z,25.50
2018-07-05T04:43:25.463Z,25.50
2018-07-05T04:46:04.988Z,25.50
2018-07-05T04:48:44.675Z,25.50
2018-07-05T04:51:24.295Z,25.50
2018-07-05T04:54:03.950Z,25.50
2018-07-05T04:56:43.346Z,25.50
2018-07-05T04:59:22.879Z,25.50
2018-07-05T05:02:02.408Z,25.50
2018-07-05T05:04:42.471Z,25.50
2018-07-05T05:07:22.060Z,25.50
2018-07-05T05:10:01.587Z,25.50
2018-07-05T05:12:41.114Z,25.60
2018-07-05T05:15:20.764Z,25.60
2018-07-05T05:18:00.414Z,25.60
2018-07-05T05:20:39.971Z,25.60
2018-07-05T05:23:19.701Z,25.60
2018-07-05T05:25:59.235Z,25.60
2018-07-05T05:28:38.883Z,25.60
2018-07-05T05:31:18.475Z,25.60
2018-07-05T05:33:58.219Z,25.60
2018-07-05T05:36:38.247Z,25.60
2018-07-05T05:39:17.875Z,25.60
2018-07-05T05:41:57.566Z,25.60
2018-07-05T05:44:37.183Z,25.60
2018-07-05T05:47:16.695Z,25.60
2018-07-05T05:49:56.236Z,25.60
2018-07-05T05:52:35.887Z,25.60
2018-07-05T05:57:49.059Z,25.60
2018-07-05T06:00:28.742Z,25.60
2018-07-05T06:03:08.270Z,25.60
2018-07-05T06:05:48.077Z,25.70
2018-07-05T06:08:27.694Z,25.70
2018-07-05T06:11:07.323Z,25.80
2018-07-05T06:13:46.922Z,25.80
2018-07-05T06:16:26.592Z,25.80
2018-07-05T06:19:06.288Z,25.80
2018-07-05T06:21:45.951Z,25.80
2018-07-05T06:24:25.630Z,25.70
2018-07-05T06:27:05.147Z,25.70
2018-07-05T06:29:44.763Z,25.70
2018-07-05T06:32:24.419Z,25.70
2018-07-05T06:35:04.015Z,25.70
2018-07-05T06:37:43.550Z,25.70
2018-07-05T06:40:23.022Z,25.70
2018-07-05T06:43:02.694Z,25.70
2018-07-05T06:45:42.407Z,25.70
2018-07-05T06:48:21.974Z,25.70
2018-07-05T06:51:01.494Z,25.70
2018-07-05T06:53:41.035Z,25.70
2018-07-05T06:56:20.601Z,25.70
2018-07-05T06:59:00.213Z,25.70
2018-07-05T07:01:39.753Z,25.70
2018-07-05T07:04:19.304Z,25.70
2018-07-05T07:06:59.058Z,25.70
2018-07-05T07:09:38.579Z,25.70
2018-07-05T07:12:18.311Z,25.70
2018-07-05T07:14:58.079Z,25.70
2018-07-05T07:17:37.620Z,25.70
2018-07-05T07:20:17.187Z,25.70
2018-07-05T07:22:56.800Z,25.80
2018-07-05T07:25:36.387Z,25.80
2018-07-05T07:28:15.948Z,25.80
2018-07-05T07:30:55.595Z,25.80
2018-07-05T07:33:35.425Z,25.80
2018-07-05T07:36:14.982Z,25.80
2018-07-05T07:38:54.625Z,25.80
2018-07-05T07:41:34.063Z,25.80
2018-07-05T07:44:01.239Z,25.80
2018-07-05T07:46:28.387Z,25.80
2018-07-05T07:48:55.553Z,25.80
2018-07-05T07:51:23.624Z,25.80
2018-07-05T07:53:50.780Z,25.80
2018-07-05T07:56:18.119Z,25.80
2018-07-05T07:58:45.278Z,25.80
2018-07-05T08:01:12.460Z,25.80
2018-07-05T08:03:40.193Z,25.80
2018-07-05T08:06:07.644Z,25.80
2018-07-05T08:08:34.838Z,25.80
2018-07-05T08:11:01.994Z,25.70
2018-07-05T08:13:29.167Z,25.70
2018-07-05T08:15:56.547Z,25.70
2018-07-05T08:18:23.890Z,25.70
2018-07-05T08:20:51.093Z,25.70
2018-07-05T08:23:18.250Z,25.70
2018-07-05T08:25:45.707Z,25.80
2018-07-05T08:28:12.898Z,25.80
2018-07-05T08:30:40.059Z,25.80
2018-07-05T08:33:07.218Z,25.80
2018-07-05T08:35:34.370Z,25.80
2018-07-05T08:38:01.537Z,25.80
2018-07-05T08:40:28.711Z,25.70
2018-07-05T08:42:55.883Z,25.80
2018-07-05T08:45:23.048Z,25.80
2018-07-05T08:47:50.199Z,25.80
2018-07-05T08:50:17.362Z,25.80
2018-07-05T08:55:11.954Z,25.80
2018-07-05T08:57:39.103Z,25.80
2018-07-05T09:00:06.267Z,25.80
2018-07-05T09:02:33.427Z,25.80
2018-07-05T09:05:00.582Z,25.80
2018-07-05T09:07:27.734Z,25.80
2018-07-05T09:09:54.893Z,25.80
2018-07-05T09:12:22.046Z,25.80
2018-07-05T09:14:49.211Z,25.80
2018-07-05T09:17:16.400Z,25.80
2018-07-05T09:19:43.550Z,25.80
2018-07-05T09:22:10.727Z,25.80
2018-07-05T09:24:37.859Z,25.80
2018-07-05T09:27:05.024Z,25.80
2018-07-05T09:29:32.195Z,25.80
2018-07-05T09:31:59.374Z,25.80
2018-07-05T09:34:26.530Z,25.80
2018-07-05T09:36:53.691Z,25.90
2018-07-05T09:39:20.848Z,25.90
2018-07-05T09:44:15.445Z,25.90
2018-07-05T09:46:42.614Z,25.90
2018-07-05T09:49:09.767Z,25.90
2018-07-05T09:51:36.931Z,25.90
2018-07-05T09:54:04.091Z,25.80
2018-07-05T09:56:31.259Z,25.80
2018-07-05T09:58:58.419Z,25.80
2018-07-05T10:01:25.578Z,25.90
2018-07-05T10:03:52.810Z,25.90
2018-07-05T10:06:19.891Z,25.90
2018-07-05T10:08:47.043Z,25.90
2018-07-05T10:11:14.207Z,25.90
2018-07-05T10:13:41.605Z,25.90
2018-07-05T10:16:08.543Z,25.90
2018-07-05T10:18:35.690Z,25.90
2018-07-05T10:21:02.863Z,25.90
2018-07-05T10:23:30.024Z,25.90
2018-07-05T10:25:57.187Z,25.90
2018-07-05T10:28:24.777Z,25.90
2018-07-05T10:31:04.363Z,25.90
2018-07-05T10:33:44.031Z,25.90
2018-07-05T10:36:11.187Z,25.90
2018-07-05T10:38:38.339Z,25.90
2018-07-05T10:41:17.839Z,25.90
2018-07-05T10:43:57.339Z,26.00
2018-07-05T10:46:37.115Z,26.00
2018-07-05T10:49:16.763Z,26.00
2018-07-05T10:51:56.508Z,25.90
2018-07-05T10:54:35.978Z,25.90
2018-07-05T10:57:15.647Z,25.90
2018-07-05T10:59:55.183Z,25.90
2018-07-05T11:02:34.766Z,25.90
2018-07-05T11:05:14.421Z,25.90
2018-07-05T11:07:54.024Z,25.90
2018-07-05T11:10:33.851Z,25.90
2018-07-05T11:13:13.492Z,25.90
2018-07-05T11:15:53.027Z,25.90
2018-07-05T11:18:32.475Z,26.00
2018-07-05T11:21:12.087Z,25.90
2018-07-05T11:23:51.713Z,25.90
2018-07-05T11:26:31.313Z,26.00
2018-07-05T11:29:10.770Z,26.00
2018-07-05T11:31:50.395Z,26.00
2018-07-05T11:34:29.951Z,26.00
2018-07-05T11:37:09.390Z,26.00
2018-07-05T11:39:49.031Z,26.00
2018-07-05T11:42:28.680Z,26.00
2018-07-05T11:45:08.103Z,26.00
2018-07-05T11:47:47.845Z,26.00
2018-07-05T11:50:27.482Z,26.00
2018-07-05T11:53:06.931Z,25.90
2018-07-05T11:55:46.467Z,25.90
2018-07-05T11:58:26.043Z,25.90
2018-07-05T12:01:05.720Z,26.00
2018-07-05T12:03:45.371Z,26.00
2018-07-05T12:06:24.700Z,26.00
2018-07-05T12:09:05.195Z,26.00
2018-07-05T12:11:44.683Z,26.00
2018-07-05T12:14:24.463Z,26.00
2018-07-05T12:17:03.989Z,26.00
2018-07-05T12:19:43.539Z,26.00
2018-07-05T12:22:23.118Z,26.00
2018-07-05T12:25:02.839Z,26.00
2018-07-05T12:27:42.403Z,26.00
2018-07-05T12:30:21.930Z,26.00
2018-07-05T12:33:01.915Z,26.00
2018-07-05T12:35:41.659Z,26.00
2018-07-05T12:38:21.404Z,26.00
2018-07-05T12:41:01.088Z,26.00
2018-07-05T12:43:40.707Z,25.90
2018-07-05T12:46:20.136Z,26.00
2018-07-05T12:48:59.690Z,26.00
2018-07-05T12:51:39.353Z,26.00
2018-07-05T12:54:18.807Z,26.00
2018-07-05T12:56:58.560Z,26.00
2018-07-05T12:59:38.226Z,26.00
2018-07-05T13:02:17.722Z,26.00
2018-07-05T13:04:57.367Z,26.00
2018-07-05T13:07:37.039Z,26.00
2018-07-05T13:10:16.683Z,26.00
2018-07-05T13:12:56.092Z,25.90
2018-07-05T13:15:35.604Z,25.90
2018-07-05T13:18:15.141Z,25.90
2018-07-05T13:20:54.556Z,25.90
2018-07-05T13:23:34.028Z,25.90
2018-07-05T13:26:13.974Z,25.90
2018-07-05T13:28:53.639Z,26.00
2018-07-05T13:31:33.128Z,26.00
2018-07-05T13:34:12.763Z,26.00
2018-07-05T13:36:52.388Z,26.00
2018-07-05T13:39:31.953Z,26.00
2018-07-05T13:42:11.515Z,26.00
2018-07-05T13:44:51.111Z,26.00
2018-07-05T13:47:30.762Z,25.90
2018-07-05T13:50:10.472Z,25.90
2018-07-05T13:52:50.114Z,25.90
2018-07-05T13:55:30.039Z,26.00
2018-07-05T13:58:09.759Z,25.90
2018-07-05T14:00:49.417Z,26.00
2018-07-05T14:03:29.024Z,26.00
2018-07-05T14:06:08.582Z,26.00
2018-07-05T14:08:48.202Z,26.00
2018-07-05T14:11:27.775Z,26.00
2018-07-05T14:14:07.405Z,26.00
2018-07-05T14:16:46.946Z,26.00
2018-07-05T14:19:26.464Z,26.00
2018-07-05T14:22:05.987Z,26.00
2018-07-05T14:24:45.576Z,26.00
2018-07-05T14:27:25.145Z,26.00
2018-07-05T14:30:04.912Z,26.00
2018-07-05T14:32:44.419Z,26.00
2018-07-05T14:35:23.950Z,25.90
2018-07-05T14:38:03.642Z,25.90
2018-07-05T14:40:43.195Z,25.90
2018-07-05T14:43:22.747Z,25.90
2018-07-05T14:46:02.364Z,25.90
2018-07-05T14:48:42.007Z,25.90
2018-07-05T14:51:21.566Z,25.80
2018-07-05T14:54:01.110Z,25.90
2018-07-05T14:56:40.731Z,25.90
2018-07-05T14:59:20.598Z,25.90
2018-07-05T15:02:00.191Z,25.90
2018-07-05T15:04:39.860Z,25.90
2018-07-05T15:07:19.432Z,25.90
2018-07-05T15:09:58.915Z,25.90
2018-07-05T15:12:38.799Z,25.80
2018-07-05T15:15:18.433Z,25.80
2018-07-05T15:17:57.978Z,25.80
2018-07-05T15:20:37.595Z,25.80
2018-07-05T15:23:17.228Z,25.80
2018-07-05T15:25:56.776Z,25.80
2018-07-05T15:28:36.323Z,25.80
2018-07-05T15:31:15.707Z,25.90
2018-07-05T15:33:55.438Z,25.90
2018-07-05T15:36:34.883Z,25.90
2018-07-05T15:39:14.466Z,25.90
2018-07-05T15:41:53.915Z,26.00
2018-07-05T15:44:33.444Z,26.00
2018-07-05T15:47:12.820Z,26.00
2018-07-05T15:49:52.370Z,26.00
2018-07-05T15:52:31.982Z,26.00
2018-07-05T15:55:11.523Z,26.00
2018-07-05T15:57:51.341Z,26.00
2018-07-05T16:00:30.953Z,26.00
2018-07-05T16:03:10.531Z,25.90
2018-07-05T16:05:50.063Z,26.00
2018-07-05T16:08:29.757Z,25.90
2018-07-05T16:11:09.355Z,25.90
2018-07-05T16:13:48.970Z,25.90
2018-07-05T16:16:28.651Z,25.90
2018-07-05T16:19:08.151Z,25.90
2018-07-05T16:21:47.854Z,26.00
2018-07-05T16:24:27.330Z,26.00
2018-07-05T16:27:07.104Z,25.90
2018-07-05T16:29:46.767Z,26.00
2018-07-05T16:32:26.335Z,26.00
2018-07-05T16:35:05.767Z,26.00
2018-07-05T16:37:45.567Z,25.90
2018-07-05T16:40:25.196Z,25.90
2018-07-05T16:43:04.899Z,26.00
2018-07-05T16:45:44.731Z,26.00
2018-07-05T16:48:24.299Z,26.00
2018-07-05T16:51:04.102Z,25.90
2018-07-05T16:53:43.618Z,25.90
2018-07-05T16:56:23.351Z,25.90
2018-07-05T16:59:03.008Z,25.90
2018-07-05T17:01:42.693Z,25.90
2018-07-05T17:04:22.403Z,25.90
2018-07-05T17:07:01.944Z,25.80
2018-07-05T17:09:41.623Z,25.80
2018-07-05T17:12:21.330Z,25.80
2018-07-05T17:15:00.868Z,25.80
2018-07-05T17:17:40.444Z,25.80
2018-07-05T17:20:20.004Z,25.80
2018-07-05T17:22:59.559Z,25.80
2018-07-05T17:25:39.211Z,25.80
2018-07-05T17:28:18.643Z,25.80
2018-07-05T17:30:58.367Z,25.80
2018-07-05T17:33:38.214Z,25.80
2018-07-05T17:36:17.847Z,25.80
2018-07-05T17:38:57.507Z,25.80
2018-07-05T17:41:37.151Z,25.80
2018-07-05T17:44:16.684Z,25.80
2018-07-05T17:46:56.490Z,25.80
2018-07-05T17:49:36.087Z,25.80
2018-07-05T17:52:15.792Z,25.80
2018-07-05T17:54:55.295Z,25.80
2018-07-05T17:57:34.886Z,25.80
2018-07-05T18:00:15.327Z,25.80
2018-07-05T18:02:55.260Z,25.80
2018-07-05T18:05:34.843Z,25.80
2018-07-05T18:08:14.626Z,25.80
2018-07-05T18:10:54.194Z,25.80
2018-07-05T18:13:33.798Z,25.80
2018-07-05T18:16:13.431Z,25.80
2018-07-05T18:18:52.987Z,25.80
2018-07-05T18:21:32.742Z,25.80
2018-07-05T18:24:12.374Z,25.80
2018-07-05T18:26:52.092Z,25.80
2018-07-05T18:29:31.722Z,25.80
2018-07-05T18:32:11.296Z,25.80
2018-07-05T18:34:50.830Z,25.80
2018-07-05T18:37:30.463Z,25.80
2018-07-05T18:40:10.065Z,25.80
2018-07-05T18:42:49.671Z,25.80
2018-07-05T18:45:29.143Z,25.80
2018-07-05T18:48:08.762Z,25.80
2018-07-05T18:50:48.303Z,25.80
2018-07-05T18:53:28.060Z,25.90
2018-07-05T18:56:07.779Z,25.90
2018-07-05T18:58:47.299Z,25.90
2018-07-05T19:01:27.024Z,25.90
2018-07-05T19:04:06.674Z,25.80
2018-07-05T19:06:46.375Z,25.80
2018-07-05T19:09:26.168Z,25.80
2018-07-05T19:12:05.802Z,25.80
2018-07-05T19:14:45.315Z,25.80
2018-07-05T19:17:24.919Z,25.80
2018-07-05T19:22:38.072Z,25.80
2018-07-05T19:25:17.636Z,25.80
2018-07-05T19:27:57.175Z,25.80
2018-07-05T19:30:36.819Z,25.80
2018-07-05T19:33:16.375Z,25.80
2018-07-05T19:35:55.911Z,25.80
2018-07-05T19:38:35.387Z,25.80
2018-07-05T19:41:14.922Z,25.90
2018-07-05T19:43:54.523Z,25.90
2018-07-05T19:46:34.279Z,25.90
2018-07-05T19:49:13.904Z,25.90
2018-07-05T19:51:53.434Z,25.90
2018-07-05T19:54:32.955Z,25.90
2018-07-05T19:57:12.614Z,25.90
2018-07-05T19:59:52.092Z,25.90
2018-07-05T20:02:31.631Z,25.90
2018-07-05T20:05:11.315Z,25.90
2018-07-05T20:07:50.919Z,25.90
2018-07-05T20:10:30.442Z,25.90
2018-07-05T20:13:10.200Z,26.00
2018-07-05T20:15:49.809Z,26.00
2018-07-05T20:18:29.351Z,26.00
2018-07-05T20:21:09.491Z,26.00
2018-07-05T20:23:49.113Z,26.10
2018-07-05T20:26:28.711Z,26.10
2018-07-05T20:29:08.218Z,26.10
2018-07-05T20:31:47.739Z,26.10
2018-07-05T20:34:27.300Z,26.10
2018-07-05T20:37:06.979Z,26.10
2018-07-05T20:39:46.486Z,26.10
2018-07-05T20:42:26.143Z,26.10
2018-07-05T20:45:06.629Z,26.10
2018-07-05T20:47:46.263Z,26.10
2018-07-05T20:50:25.866Z,26.20
2018-07-05T20:53:05.623Z,26.20
2018-07-05T20:55:45.366Z,26.20
2018-07-05T20:58:24.908Z,26.30
2018-07-05T21:01:04.431Z,26.20
2018-07-05T21:03:43.958Z,26.20
2018-07-05T21:06:23.707Z,26.20
2018-07-05T21:09:04.523Z,26.10
2018-07-05T21:11:44.166Z,26.10
2018-07-05T21:14:24.206Z,26.10
2018-07-05T21:17:03.960Z,26.10
2018-07-05T21:19:43.483Z,26.00
2018-07-05T21:22:22.994Z,26.00
2018-07-05T21:25:02.543Z,26.00
2018-07-05T21:27:42.090Z,26.00
2018-07-05T21:30:21.706Z,26.00
2018-07-05T21:33:01.367Z,26.00
2018-07-05T21:35:41.127Z,26.00
2018-07-05T21:38:20.730Z,26.00
2018-07-05T21:41:00.314Z,25.90
2018-07-05T21:43:39.948Z,25.90
2018-07-05T21:46:19.465Z,25.90
2018-07-05T21:48:59.242Z,25.90
2018-07-05T21:51:38.933Z,25.90
2018-07-05T21:54:19.041Z,25.90
2018-07-05T21:56:58.456Z,25.90
2018-07-05T21:59:38.421Z,25.90
2018-07-05T22:02:18.274Z,25.90
2018-07-05T22:04:57.798Z,25.90
2018-07-05T22:07:37.566Z,25.90
2018-07-05T22:10:17.282Z,25.90
2018-07-05T22:12:56.894Z,25.90
2018-07-05T22:15:36.664Z,25.90
2018-07-05T22:18:21.803Z,25.80
2018-07-05T22:21:06.987Z,25.80
2018-07-05T22:23:52.249Z,25.80
2018-07-05T22:26:32.459Z,25.80
2018-07-05T22:29:17.707Z,25.80
2018-07-05T22:31:58.603Z,25.80
2018-07-05T22:34:38.095Z,25.80
2018-07-05T22:37:17.554Z,25.80
2018-07-05T22:39:56.994Z,25.80
2018-07-05T22:42:37.065Z,25.80
2018-07-05T22:45:16.563Z,25.80
2018-07-05T22:47:56.144Z,25.80
2018-07-05T22:50:35.539Z,25.80
2018-07-05T22:53:15.215Z,25.80
2018-07-05T22:55:55.055Z,25.80
2018-07-05T22:58:34.802Z,25.80
2018-07-05T23:01:14.539Z,25.80
2018-07-05T23:03:54.075Z,25.80
2018-07-05T23:06:33.765Z,25.80
2018-07-05T23:09:13.351Z,25.80
2018-07-05T23:11:53.035Z,25.80
2018-07-05T23:14:32.527Z,25.80
2018-07-05T23:17:12.050Z,25.70
2018-07-05T23:19:51.711Z,25.70
2018-07-05T23:22:31.411Z,25.70
2018-07-05T23:25:10.955Z,25.70
2018-07-05T23:27:50.351Z,25.70
2018-07-05T23:30:29.888Z,25.70
2018-07-05T23:33:09.491Z,25.70
2018-07-05T23:35:49.023Z,25.60
2018-07-05T23:38:28.494Z,25.30
2018-07-05T23:41:08.255Z,25.10
2018-07-05T23:43:47.856Z,25.00
2018-07-05T23:46:27.479Z,24.80
2018-07-05T23:49:07.139Z,24.90
2018-07-05T23:51:46.803Z,24.90
2018-07-05T23:54:26.468Z,25.10
2018-07-05T23:57:06.143Z,25.10
2018-07-05T23:59:45.790Z,25.20
